createdAt,value
2023-01-21T00:01:00.733Z,0.65
2023-01-21T00:03:27.607Z,0.63
2023-01-21T00:05:54.509Z,0.60
2023-01-21T00:08:21.268Z,0.59
2023-01-21T00:10:48.095Z,0.62
2023-01-21T00:13:14.831Z,0.62
2023-01-21T00:15:41.638Z,0.59
2023-01-21T00:18:09.135Z,0.53
2023-01-21T00:20:35.915Z,0.48
2023-01-21T00:23:02.704Z,0.53
2023-01-21T00:25:29.595Z,0.57
2023-01-21T00:27:56.493Z,0.58
2023-01-21T00:30:28.628Z,0.57
2023-01-21T00:32:55.471Z,0.57
2023-01-21T00:35:22.219Z,0.54
2023-01-21T00:37:51.811Z,0.53
2023-01-21T00:40:18.965Z,0.49
2023-01-21T00:42:45.815Z,0.49
2023-01-21T00:45:12.746Z,0.47
2023-01-21T00:47:40.003Z,0.38
2023-01-21T00:50:07.513Z,0.55
2023-01-21T00:52:35.320Z,0.49
2023-01-21T00:55:02.352Z,0.42
2023-01-21T00:57:29.813Z,0.41
2023-01-21T00:59:56.568Z,0.35
2023-01-21T01:02:23.490Z,0.27
2023-01-21T01:04:50.206Z,0.23
2023-01-21T01:07:16.963Z,0.23
2023-01-21T01:09:43.713Z,0.23
2023-01-21T01:12:10.411Z,0.24
2023-01-21T01:14:37.216Z,0.23
2023-01-21T01:17:04.901Z,0.19
2023-01-21T01:19:33.963Z,0.21
2023-01-21T01:22:00.500Z,0.22
2023-01-21T01:24:27.411Z,0.18
2023-01-21T01:26:54.135Z,0.22
2023-01-21T01:29:20.896Z,0.23
2023-01-21T01:31:47.789Z,0.21
2023-01-21T01:34:14.623Z,0.03
2023-01-21T01:36:41.333Z,0.12
2023-01-21T01:39:08.091Z,0.11
2023-01-21T01:41:35.507Z,0.09
2023-01-21T01:44:10.795Z,0.13
2023-01-21T01:46:37.702Z,0.15
2023-01-21T01:49:14.800Z,0.15
2023-01-21T01:51:47.786Z,0.16
2023-01-21T01:54:22.127Z,0.20
2023-01-21T01:56:51.733Z,0.20
2023-01-21T01:59:19.603Z,0.20
2023-01-21T02:01:46.572Z,0.18
2023-01-21T02:04:20.425Z,0.14
2023-01-21T02:06:49.035Z,0.09
2023-01-21T02:09:15.962Z,-0.06
2023-01-21T02:11:42.782Z,0.05
2023-01-21T02:14:09.830Z,0.06
2023-01-21T02:17:01.314Z,0.07
2023-01-21T02:19:49.158Z,0.06
2023-01-21T02:22:59.195Z,0.05
2023-01-21T02:26:01.347Z,0.05
2023-01-21T02:28:49.646Z,0.08
2023-01-21T02:31:47.300Z,-0.03
2023-01-21T02:34:20.928Z,-0.08
2023-01-21T02:37:07.370Z,-0.13
2023-01-21T02:39:43.939Z,-0.11
2023-01-21T02:42:28.899Z,-0.09
2023-01-21T02:45:15.436Z,-0.09
2023-01-21T02:48:06.586Z,-0.13
2023-01-21T02:50:42.457Z,-0.11
2023-01-21T02:53:24.361Z,-0.12
2023-01-21T02:55:52.591Z,-0.12
2023-01-21T02:58:24.372Z,-0.14
2023-01-21T03:01:24.970Z,-0.16
2023-01-21T03:04:03.799Z,-0.22
2023-01-21T03:06:58.215Z,-0.25
2023-01-21T03:09:33.646Z,-0.27
2023-01-21T03:12:23.370Z,-0.26
2023-01-21T03:15:19.356Z,-0.27
2023-01-21T03:17:55.791Z,-0.32
2023-01-21T03:20:49.278Z,-0.33
2023-01-21T03:23:27.731Z,-0.38
2023-01-21T03:25:57.254Z,-0.41
2023-01-21T03:28:36.292Z,-0.39
2023-01-21T03:31:07.721Z,-0.42
2023-01-21T03:33:39.870Z,-0.44
2023-01-21T03:36:14.675Z,-0.45
2023-01-21T03:38:48.248Z,-0.53
2023-01-21T03:41:21.589Z,-0.47
2023-01-21T03:43:50.687Z,-0.53
2023-01-21T03:46:35.912Z,-0.49
2023-01-21T03:49:18.060Z,-0.51
2023-01-21T03:51:56.333Z,-0.57
2023-01-21T03:54:23.292Z,-0.53
2023-01-21T03:56:49.964Z,-0.57
2023-01-21T03:59:16.663Z,-0.58
2023-01-21T04:01:43.447Z,-0.59
2023-01-21T04:04:10.662Z,-0.65
2023-01-21T04:06:37.446Z,-0.63
2023-01-21T04:09:05.487Z,-0.68
2023-01-21T04:11:32.892Z,-0.70
2023-01-21T04:14:00.408Z,-0.77
2023-01-21T04:16:27.215Z,-0.79
2023-01-21T04:18:54.258Z,-0.84
2023-01-21T04:21:21.277Z,-0.85
2023-01-21T04:23:48.047Z,-0.85
2023-01-21T04:26:16.497Z,-0.88
2023-01-21T04:28:43.489Z,-0.95
2023-01-21T04:31:10.487Z,-0.94
2023-01-21T04:33:40.227Z,-0.96
2023-01-21T04:36:07.052Z,-0.97
2023-01-21T04:38:34.008Z,-0.98
2023-01-21T04:41:00.737Z,-1.01
2023-01-21T04:43:27.402Z,-1.01
2023-01-21T04:45:54.163Z,-1.02
2023-01-21T04:48:21.128Z,-1.06
2023-01-21T04:50:47.989Z,-1.09
2023-01-21T04:53:14.928Z,-1.09
2023-01-21T04:55:41.697Z,-1.11
2023-01-21T04:58:10.739Z,-1.11
2023-01-21T05:00:37.401Z,-1.13
2023-01-21T05:03:04.235Z,-1.16
2023-01-21T05:05:31.006Z,-1.19
2023-01-21T05:08:01.990Z,-1.21
2023-01-21T05:10:28.855Z,-1.26
2023-01-21T05:12:56.699Z,-1.33
2023-01-21T05:15:23.535Z,-1.34
2023-01-21T05:17:50.276Z,-1.34
2023-01-21T05:20:17.860Z,-1.36
2023-01-21T05:22:48.958Z,-1.37
2023-01-21T05:25:16.930Z,-1.42
2023-01-21T05:27:43.645Z,-1.42
2023-01-21T05:30:10.963Z,-1.43
2023-01-21T05:32:39.836Z,-1.45
2023-01-21T05:35:06.903Z,-1.48
2023-01-21T05:37:33.608Z,-1.49
2023-01-21T05:40:00.399Z,-1.51
2023-01-21T05:42:29.204Z,-1.52
2023-01-21T05:44:56.776Z,-1.52
2023-01-21T05:47:23.567Z,-1.53
2023-01-21T05:49:50.295Z,-1.53
2023-01-21T05:52:17.137Z,-1.58
2023-01-21T05:54:56.094Z,-1.60
2023-01-21T05:57:28.069Z,-1.62
2023-01-21T05:59:54.808Z,-1.61
2023-01-21T06:02:21.689Z,-1.63
2023-01-21T06:04:48.385Z,-1.68
2023-01-21T06:07:15.235Z,-1.67
2023-01-21T06:09:46.776Z,-1.73
2023-01-21T06:12:13.498Z,-1.63
2023-01-21T06:14:40.200Z,-1.76
2023-01-21T06:17:06.905Z,-1.70
2023-01-21T06:19:33.679Z,-1.69
2023-01-21T06:22:00.535Z,-1.70
2023-01-21T06:24:27.199Z,-1.74
2023-01-21T06:26:53.907Z,-1.81
2023-01-21T06:29:20.638Z,-1.81
2023-01-21T06:31:47.435Z,-1.81
2023-01-21T06:34:14.393Z,-1.86
2023-01-21T06:36:42.786Z,-1.86
2023-01-21T06:39:11.021Z,-1.84
2023-01-21T06:41:38.332Z,-1.93
2023-01-21T06:44:05.521Z,-1.84
2023-01-21T06:46:32.384Z,-1.86
2023-01-21T06:48:59.256Z,-1.87
2023-01-21T06:51:26.066Z,-1.87
2023-01-21T06:53:53.407Z,-1.88
2023-01-21T06:56:22.204Z,-1.85
2023-01-21T06:58:49.032Z,-1.80
2023-01-21T07:01:15.819Z,-1.81
2023-01-21T07:03:42.677Z,-1.90
2023-01-21T07:06:09.472Z,-1.92
2023-01-21T07:08:36.238Z,-2.09
2023-01-21T07:11:03.149Z,-2.10
2023-01-21T07:13:29.898Z,-2.02
2023-01-21T07:16:01.099Z,-2.00
2023-01-21T07:18:28.457Z,-2.08
2023-01-21T07:20:56.126Z,-2.04
2023-01-21T07:23:23.326Z,-1.95
2023-01-21T07:25:50.087Z,-2.01
2023-01-21T07:28:17.391Z,-2.00
2023-01-21T07:30:44.209Z,-2.00
2023-01-21T07:33:11.113Z,-1.93
2023-01-21T07:38:20.805Z,-1.82
2023-01-21T07:40:50.823Z,-1.81
2023-01-21T07:43:25.279Z,-1.78
2023-01-21T07:45:54.716Z,-1.72
2023-01-21T07:48:21.557Z,-1.66
2023-01-21T07:50:48.476Z,-1.61
2023-01-21T07:53:15.241Z,-1.59
2023-01-21T07:55:42.019Z,-1.58
2023-01-21T07:58:10.775Z,-1.58
2023-01-21T08:00:37.622Z,-1.55
2023-01-21T08:03:04.318Z,-1.52
2023-01-21T08:05:31.014Z,-1.71
2023-01-21T08:07:59.041Z,-1.59
2023-01-21T08:10:26.350Z,-1.64
2023-01-21T08:12:53.078Z,-1.60
2023-01-21T08:15:19.986Z,-1.58
2023-01-21T08:17:47.605Z,-1.54
2023-01-21T08:20:14.855Z,-1.54
2023-01-21T08:22:43.568Z,-1.43
2023-01-21T08:25:11.263Z,-1.40
2023-01-21T08:27:38.186Z,-1.45
2023-01-21T08:30:05.450Z,-1.42
2023-01-21T08:32:32.286Z,-1.51
2023-01-21T08:34:59.061Z,-1.48
2023-01-21T08:40:10.026Z,-1.43
2023-01-21T08:42:36.998Z,-1.36
2023-01-21T08:45:06.644Z,-1.38
2023-01-21T08:47:33.379Z,-1.37
2023-01-21T08:50:02.180Z,-1.35
2023-01-21T08:52:31.995Z,-1.28
2023-01-21T08:55:06.532Z,-1.20
2023-01-21T08:57:33.316Z,-1.19
2023-01-21T09:00:01.789Z,-1.19
2023-01-21T09:02:28.820Z,-1.14
2023-01-21T09:04:55.623Z,-1.10
2023-01-21T09:07:22.455Z,-1.14
2023-01-21T09:09:49.521Z,-1.20
2023-01-21T09:12:18.568Z,-1.25
2023-01-21T09:14:45.167Z,-1.28
2023-01-21T09:17:11.937Z,-1.31
2023-01-21T09:19:38.760Z,-1.28
2023-01-21T09:22:06.640Z,-1.26
2023-01-21T09:24:33.464Z,-1.35
2023-01-21T09:27:00.160Z,-1.35
2023-01-21T09:29:27.059Z,-1.30
2023-01-21T09:31:53.900Z,-1.22
2023-01-21T09:34:20.718Z,-1.21
2023-01-21T09:36:47.466Z,-1.14
2023-01-21T09:39:14.246Z,-1.10
2023-01-21T09:41:46.191Z,-1.11
2023-01-21T09:44:28.340Z,-1.14
2023-01-21T09:49:43.964Z,-1.30
2023-01-21T09:52:29.945Z,-1.13
2023-01-21T09:54:58.354Z,-1.25
2023-01-21T09:57:34.609Z,-1.12
2023-01-21T10:00:32.413Z,-1.18
2023-01-21T10:03:23.901Z,-1.11
2023-01-21T10:06:02.793Z,-1.08
2023-01-21T10:09:19.876Z,-1.15
2023-01-21T10:12:19.817Z,-1.15
2023-01-21T10:15:04.151Z,-1.14
2023-01-21T10:18:09.501Z,-1.13
2023-01-21T10:20:57.740Z,-1.06
2023-01-21T10:23:51.472Z,-1.03
2023-01-21T10:26:18.219Z,-0.99
2023-01-21T10:31:39.482Z,-0.84
2023-01-21T10:34:15.011Z,-0.88
2023-01-21T10:37:04.895Z,-0.88
2023-01-21T10:39:37.429Z,-0.85
2023-01-21T10:42:13.004Z,-0.88
2023-01-21T10:44:54.915Z,-0.92
2023-01-21T10:47:49.300Z,-0.92
2023-01-21T10:50:41.119Z,-1.00
2023-01-21T10:53:20.893Z,-0.95
2023-01-21T10:56:08.914Z,-0.92
2023-01-21T10:58:46.212Z,-0.96
2023-01-21T11:01:21.025Z,-0.93
2023-01-21T11:03:52.154Z,-0.91
2023-01-21T11:06:21.609Z,-0.92
2023-01-21T11:09:01.052Z,-0.95
2023-01-21T11:11:34.757Z,-0.94
2023-01-21T11:14:01.887Z,-0.93
2023-01-21T11:16:39.603Z,-0.94
2023-01-21T11:19:08.251Z,-0.89
2023-01-21T11:21:35.143Z,-0.87
2023-01-21T11:24:06.135Z,-0.94
2023-01-21T11:26:36.093Z,-0.99
2023-01-21T11:29:14.107Z,-1.01
2023-01-21T11:31:43.525Z,-1.05
2023-01-21T11:34:16.400Z,-1.20
2023-01-21T11:37:07.339Z,-1.14
2023-01-21T11:39:40.549Z,-1.16
2023-01-21T11:42:17.702Z,-1.21
2023-01-21T11:44:56.855Z,-1.28
2023-01-21T11:47:46.078Z,-1.28
2023-01-21T11:50:49.123Z,-1.24
2023-01-21T11:53:19.907Z,-1.17
2023-01-21T11:55:59.544Z,-1.13
2023-01-21T11:58:30.620Z,-1.11
2023-01-21T12:01:00.428Z,-1.11
2023-01-21T12:03:45.717Z,-1.11
2023-01-21T12:06:28.837Z,-1.14
2023-01-21T12:08:59.799Z,-1.24
2023-01-21T12:11:29.698Z,-1.22
2023-01-21T12:14:26.182Z,-1.16
2023-01-21T12:17:17.287Z,-1.32
2023-01-21T12:19:56.118Z,-1.47
2023-01-21T12:22:37.366Z,-1.48
2023-01-21T12:25:23.923Z,-1.47
2023-01-21T12:28:06.396Z,-1.50
2023-01-21T12:31:14.578Z,-1.45
2023-01-21T12:33:50.555Z,-1.52
2023-01-21T12:36:27.685Z,-1.50
2023-01-21T12:39:18.579Z,-1.48
2023-01-21T12:41:51.497Z,-1.52
2023-01-21T12:44:42.407Z,-1.52
2023-01-21T12:47:22.024Z,-1.49
2023-01-21T12:50:06.355Z,-1.44
2023-01-21T12:52:33.046Z,-1.39
2023-01-21T12:55:14.831Z,-1.40
2023-01-21T12:57:48.423Z,-1.37
2023-01-21T13:00:29.853Z,-1.49
2023-01-21T13:03:11.552Z,-1.41
2023-01-21T13:05:49.607Z,-1.42
2023-01-21T13:08:46.634Z,-1.48
2023-01-21T13:11:20.699Z,-1.53
2023-01-21T13:13:53.352Z,-1.44
2023-01-21T13:16:30.947Z,-1.45
2023-01-21T13:18:57.775Z,-1.46
2023-01-21T13:21:30.129Z,-1.52
2023-01-21T13:24:17.241Z,-1.59
2023-01-21T13:26:50.521Z,-1.62
2023-01-21T13:29:36.665Z,-1.66
2023-01-21T13:32:31.289Z,-1.66
2023-01-21T13:35:00.616Z,-1.74
2023-01-21T13:37:42.378Z,-1.75
2023-01-21T13:40:58.324Z,-1.79
2023-01-21T13:43:33.947Z,-1.82
2023-01-21T13:46:15.638Z,-1.78
2023-01-21T13:49:01.715Z,-1.80
2023-01-21T13:51:49.649Z,-1.73
2023-01-21T13:54:42.384Z,-1.74
2023-01-21T13:57:20.352Z,-1.67
2023-01-21T13:59:55.582Z,-1.66
2023-01-21T14:02:39.107Z,-1.67
2023-01-21T14:05:25.490Z,-1.65
2023-01-21T14:08:26.790Z,-1.64
2023-01-21T14:11:01.199Z,-1.62
2023-01-21T14:13:52.919Z,-1.66
2023-01-21T14:16:30.069Z,-1.73
2023-01-21T14:19:15.898Z,-1.77
2023-01-21T14:21:57.374Z,-1.77
2023-01-21T14:24:30.209Z,-1.76
2023-01-21T14:26:58.891Z,-1.73
2023-01-21T14:29:47.148Z,-1.74
2023-01-21T14:32:50.277Z,-1.79
2023-01-21T14:35:27.631Z,-1.73
2023-01-21T14:38:40.895Z,-1.74
2023-01-21T14:41:10.375Z,-1.78
2023-01-21T14:43:38.013Z,-1.77
2023-01-21T14:46:23.310Z,-1.76
2023-01-21T14:49:19.129Z,-1.78
2023-01-21T14:51:53.973Z,-1.81
2023-01-21T14:54:26.944Z,-1.80
2023-01-21T14:57:01.692Z,-1.82
2023-01-21T14:59:35.913Z,-1.79
2023-01-21T15:02:32.920Z,-1.78
2023-01-21T15:05:17.288Z,-1.80
2023-01-21T15:07:47.200Z,-1.79
2023-01-21T15:10:18.861Z,-1.80
2023-01-21T15:12:59.713Z,-2.00
2023-01-21T15:15:50.653Z,-1.85
2023-01-21T15:18:34.174Z,-1.88
2023-01-21T15:21:01.582Z,-1.90
2023-01-21T15:23:31.154Z,-1.90
2023-01-21T15:26:21.392Z,-1.94
2023-01-21T15:28:59.798Z,-1.93
2023-01-21T15:31:26.646Z,-1.98
2023-01-21T15:33:57.223Z,-2.02
2023-01-21T15:36:26.264Z,-2.05
2023-01-21T15:39:15.939Z,-2.11
2023-01-21T15:41:47.840Z,-2.16
2023-01-21T15:44:44.321Z,-2.14
2023-01-21T15:47:33.928Z,-2.14
2023-01-21T15:50:21.736Z,-2.15
2023-01-21T15:53:03.066Z,-2.18
2023-01-21T15:55:44.303Z,-2.23
2023-01-21T15:58:25.052Z,-2.26
2023-01-21T16:00:58.172Z,-2.33
2023-01-21T16:03:27.365Z,-2.44
2023-01-21T16:06:21.859Z,-2.52
2023-01-21T16:09:09.430Z,-2.50
2023-01-21T16:12:01.041Z,-2.53
2023-01-21T16:14:45.988Z,-2.53
2023-01-21T16:17:15.775Z,-2.58
2023-01-21T16:19:51.579Z,-2.60
2023-01-21T16:22:24.522Z,-2.65
2023-01-21T16:25:01.078Z,-2.70
2023-01-21T16:27:31.119Z,-2.71
2023-01-21T16:29:59.749Z,-2.68
2023-01-21T16:32:27.335Z,-2.66
2023-01-21T16:34:54.610Z,-2.66
2023-01-21T16:37:27.717Z,-2.75
2023-01-21T16:40:13.817Z,-2.81
2023-01-21T16:42:44.302Z,-2.85
2023-01-21T16:45:21.343Z,-2.89
2023-01-21T16:47:59.987Z,-2.96
2023-01-21T16:50:29.179Z,-2.87
2023-01-21T16:52:57.486Z,-2.85
2023-01-21T16:55:28.140Z,-2.85
2023-01-21T16:57:57.943Z,-2.83
2023-01-21T17:00:25.916Z,-2.80
2023-01-21T17:02:53.182Z,-2.90
2023-01-21T17:05:20.122Z,-2.80
2023-01-21T17:07:47.037Z,-2.83
2023-01-21T17:10:29.327Z,-2.89
2023-01-21T17:13:02.310Z,-2.87
2023-01-21T17:15:41.568Z,-2.88
2023-01-21T17:18:22.668Z,-2.90
2023-01-21T17:20:54.616Z,-2.96
2023-01-21T17:23:25.864Z,-2.98
2023-01-21T17:26:10.897Z,-3.00
2023-01-21T17:28:46.334Z,-3.02
2023-01-21T17:31:18.155Z,-3.07
2023-01-21T17:33:45.331Z,-3.08
2023-01-21T17:36:15.690Z,-3.14
2023-01-21T17:38:45.393Z,-3.18
2023-01-21T17:41:25.473Z,-3.15
2023-01-21T17:43:55.806Z,-3.13
2023-01-21T17:46:40.647Z,-3.18
2023-01-21T17:49:12.495Z,-3.19
2023-01-21T17:51:43.196Z,-3.18
2023-01-21T17:54:24.801Z,-3.18
2023-01-21T17:56:54.739Z,-3.19
2023-01-21T17:59:38.341Z,-3.24
2023-01-21T18:02:19.242Z,-3.30
2023-01-21T18:04:46.647Z,-3.36
2023-01-21T18:07:23.117Z,-3.32
2023-01-21T18:09:51.258Z,-3.38
2023-01-21T18:12:19.681Z,-3.39
2023-01-21T18:14:47.238Z,-3.42
2023-01-21T18:17:19.087Z,-3.43
2023-01-21T18:19:46.303Z,-3.60
2023-01-21T18:22:27.638Z,-3.47
2023-01-21T18:24:54.651Z,-3.49
2023-01-21T18:27:25.669Z,-3.47
2023-01-21T18:29:52.979Z,-3.47
2023-01-21T18:32:19.682Z,-3.59
2023-01-21T18:34:47.020Z,-3.62
2023-01-21T18:37:16.893Z,-3.61
2023-01-21T18:42:24.931Z,-3.60
2023-01-21T18:44:51.727Z,-3.62
2023-01-21T18:47:19.831Z,-3.70
2023-01-21T18:49:49.470Z,-3.76
2023-01-21T18:52:32.656Z,-3.75
2023-01-21T18:54:59.383Z,-3.80
2023-01-21T18:57:26.788Z,-3.85
2023-01-21T18:59:55.534Z,-3.88
2023-01-21T19:02:24.609Z,-3.91
2023-01-21T19:04:53.661Z,-3.85
2023-01-21T19:07:25.783Z,-3.86
2023-01-21T19:09:54.033Z,-3.95
2023-01-21T19:12:22.938Z,-3.99
2023-01-21T19:17:33.488Z,-3.93
2023-01-21T19:20:00.252Z,-3.95
2023-01-21T19:22:26.966Z,-3.95
2023-01-21T19:24:53.727Z,-3.94
2023-01-21T19:27:29.371Z,-4.02
2023-01-21T19:29:58.250Z,-4.03
2023-01-21T19:32:25.354Z,-4.03
2023-01-21T19:35:14.552Z,-4.19
2023-01-21T19:37:41.021Z,-4.05
2023-01-21T19:40:20.696Z,-4.07
2023-01-21T19:42:47.913Z,-4.06
2023-01-21T19:45:16.216Z,-4.04
2023-01-21T19:47:45.242Z,-4.06
2023-01-21T19:50:24.108Z,-4.04
2023-01-21T19:52:52.765Z,-4.01
2023-01-21T19:55:25.036Z,-4.05
2023-01-21T19:58:01.256Z,-4.08
2023-01-21T20:00:33.463Z,-4.10
2023-01-21T20:03:00.693Z,-4.17
2023-01-21T20:05:30.312Z,-4.24
2023-01-21T20:07:57.121Z,-4.06
2023-01-21T20:10:26.487Z,-4.07
2023-01-21T20:12:54.262Z,-4.07
2023-01-21T20:15:41.133Z,-4.13
2023-01-21T20:18:19.408Z,-4.21
2023-01-21T20:20:46.487Z,-4.16
2023-01-21T20:23:16.936Z,-4.19
2023-01-21T20:25:48.604Z,-4.13
2023-01-21T20:28:19.744Z,-4.07
2023-01-21T20:30:47.880Z,-4.06
2023-01-21T20:33:17.653Z,-3.97
2023-01-21T20:35:50.093Z,-3.97
2023-01-21T20:38:23.325Z,-4.08
2023-01-21T20:40:50.046Z,-4.03
2023-01-21T20:43:18.956Z,-4.06
2023-01-21T20:45:48.127Z,-4.08
2023-01-21T20:48:42.335Z,-4.04
2023-01-21T20:51:09.743Z,-4.07
2023-01-21T20:53:37.071Z,-4.17
2023-01-21T20:56:22.281Z,-4.17
2023-01-21T20:58:49.018Z,-4.14
2023-01-21T21:01:18.312Z,-4.05
2023-01-21T21:03:45.540Z,-4.07
2023-01-21T21:06:21.406Z,-4.11
2023-01-21T21:08:48.997Z,-4.13
2023-01-21T21:11:16.863Z,-4.13
2023-01-21T21:13:46.423Z,-4.09
2023-01-21T21:16:23.195Z,-4.14
2023-01-21T21:18:50.812Z,-4.24
2023-01-21T21:21:18.454Z,-4.22
2023-01-21T21:23:48.537Z,-4.19
2023-01-21T21:26:26.568Z,-4.20
2023-01-21T21:28:54.990Z,-4.17
2023-01-21T21:31:23.124Z,-4.21
2023-01-21T21:33:50.183Z,-4.10
2023-01-21T21:36:19.643Z,-4.11
2023-01-21T21:38:47.307Z,-4.21
2023-01-21T21:41:37.784Z,-4.18
2023-01-21T21:44:05.855Z,-4.16
2023-01-21T21:46:51.635Z,-4.12
2023-01-21T21:49:18.810Z,-4.08
2023-01-21T21:51:46.011Z,-4.05
2023-01-21T21:54:15.173Z,-4.02
2023-01-21T21:56:44.882Z,-4.02
2023-01-21T21:59:12.724Z,-4.09
2023-01-21T22:01:41.439Z,-4.08
2023-01-21T22:04:08.338Z,-4.01
2023-01-21T22:06:35.114Z,-4.01
2023-01-21T22:09:02.230Z,-4.01
2023-01-21T22:11:29.526Z,-4.03
2023-01-21T22:13:57.186Z,-4.04
2023-01-21T22:16:27.245Z,-4.03
2023-01-21T22:18:55.021Z,-4.03
2023-01-21T22:21:24.905Z,-4.23
2023-01-21T22:23:53.054Z,-4.14
2023-01-21T22:26:22.219Z,-4.13
2023-01-21T22:28:51.355Z,-4.02
2023-01-21T22:31:21.547Z,-3.98
2023-01-21T22:33:48.969Z,-3.95
2023-01-21T22:36:22.706Z,-3.98
2023-01-21T22:38:50.412Z,-4.03
2023-01-21T22:41:24.032Z,-4.00
2023-01-21T22:43:51.357Z,-4.05
2023-01-21T22:46:20.842Z,-3.88
2023-01-21T22:48:50.448Z,-3.94
2023-01-21T22:51:19.623Z,-3.84
2023-01-21T22:53:46.494Z,-3.85
2023-01-21T22:56:15.141Z,-3.82
2023-01-21T22:58:42.190Z,-3.76
2023-01-21T23:01:20.037Z,-3.76
2023-01-21T23:03:46.773Z,-3.78
2023-01-21T23:06:13.507Z,-3.79
2023-01-21T23:08:40.252Z,-3.77
2023-01-21T23:11:09.041Z,-3.74
2023-01-21T23:13:36.250Z,-3.92
2023-01-21T23:16:06.812Z,-3.86
2023-01-21T23:18:36.303Z,-4.08
2023-01-21T23:21:17.767Z,-3.82
2023-01-21T23:23:44.587Z,-3.81
2023-01-21T23:26:11.943Z,-3.79
2023-01-21T23:28:39.032Z,-3.79
2023-01-21T23:31:12.924Z,-3.66
2023-01-21T23:33:47.286Z,-3.64
2023-01-21T23:36:14.030Z,-3.74
2023-01-21T23:38:41.943Z,-3.78
2023-01-21T23:41:10.657Z,-3.73
2023-01-21T23:43:37.728Z,-3.70
2023-01-21T23:46:09.333Z,-3.71
2023-01-21T23:48:36.164Z,-3.74
2023-01-21T23:51:08.115Z,-3.78
2023-01-21T23:53:36.044Z,-3.78
2023-01-21T23:56:17.991Z,-3.74
2023-01-21T23:58:44.738Z,-3.79
